Overview Statistics Trail Chart Weather Telemetry Raw packets
 

This is the latest recevied weather packets stored in our database for station/object K1NOT-WX. If no packets are shown the sender has not sent any weather packets the latest 10 day(s).

<< 9 10 11 12 13 14 15 >>
Time Temp. Humidity Pressure Rain* Wind** Luminosity Snow
1777516932 16.11° C 63% 1012.9 hPa 0 mm - - -
1777516032 16.67° C 62% 1012.9 hPa 0 mm - - -
1777515132 16.67° C 63% 1013.2 hPa 0 mm - - -
1777514232 17.22° C 61% 1012.9 hPa 0 mm - - -
1777513332 16.67° C 64% 1013.2 hPa 0 mm - - -
1777512433 16.11° C 65% 1013.2 hPa 0 mm - - -
1777511533 16.67° C 62% 1013.2 hPa 0 mm - - -
1777510633 16.67° C 62% 1013.5 hPa 0 mm - - -
1777509733 16.67° C 57% 1013.5 hPa 0 mm - - -
1777508833 16.11° C 63% 1013.5 hPa 0 mm - - -
1777507933 15.56° C 68% 1013.5 hPa 0 mm - - -
1777507033 16.11° C 67% 1013.5 hPa 0 mm - - -
1777506133 16.67° C 67% 1013.5 hPa 0 mm - - -
1777505233 15.56° C 69% 1013.9 hPa 0 mm - - -
1777504333 16.11° C 68% 1013.9 hPa 0 mm - - -
1777503433 16.11° C 67% 1014.2 hPa 0 mm - - -
1777502533 16.11° C 67% 1014.2 hPa 0 mm - - -
1777501633 16.11° C 66% 1014.2 hPa 0 mm - - -
1777500733 16.11° C 65% 1014.6 hPa 0 mm - - -
1777499833 16.11° C 63% 1014.6 hPa 0 mm - - -
1777498933 16.11° C 60% 1014.6 hPa 0 mm - - -
1777498032 16.67° C 61% 1014.6 hPa 0 mm - - -
1777497133 16.67° C 60% 1015.2 hPa 0 mm - - -
1777496233 16.67° C 60% 1014.9 hPa 0 mm - - -
1777495332 16.11° C 62% 1015.2 hPa 0 mm - - -

* Rain latest hour (hover to see other rain measurements)
** Current wind speed in m/s (hover to see current wind gust speed)